Captain Cook, HI

8:17 PM HST on August 26, 2016 (GMT -1000)
Halemalu | | Change Station

Elev 1656 ft 19.50 °N, 155.91 °W | Updated 3 seconds ago

Scattered Clouds
Scattered Clouds
71.4 °F
Feels Like 71.4 °F
N
0.0
Wind Variable Wind from SE
Gusts 4.0 mph

Today
High -- | Low -- °F
--% Chance of Precip.
Yesterday
High -- | Low -- °F
Precip. -- in
Pressure 29.96 in
Visibility 10.0 miles
Clouds Scattered Clouds 7500 ft
Dew Point 70 °F
Humidity 94%
Rainfall 0.24 in
Snow Depth Not available.
6:07 AM 6:42 PM
Waning Crescent, 27% visible
METAR PHKO 270553Z 21008KT 10SM SCT075 28/23 A2995 RMK AO2 SLP143 60000 T02830228 10317 20283 53020
Pressure 29.96 in
Visibility 10.0 miles
Clouds Scattered Clouds 7500 ft
Dew Point 70 °F
Humidity 94%
Rainfall 0.24 in
Snow Depth Not available.
6:07 AM 6:42 PM
Waning Crescent, 27% visible
METAR PHKO 270553Z 21008KT 10SM SCT075 28/23 A2995 RMK AO2 SLP143 60000 T02830228 10317 20283 53020

10-Day Weather Forecast

Almanac

Astronomy

Aug. 26, 2016 Rise Set
Actual Time
Civil Twilight
Nautical Twilight
Astronomical Twilight
Moon
Length of Visible Light
Length of Day
Tomorrow will be .
, % of the Moon is Illuminated

Today's Extremes

State Highs State Lows

Community

WunderPhotos

Upload Photos

1,935,303 photos uploaded!

WunderBlog® & News

Nearby

Air Quality

  Air Quality AQ Index Pollutant
Not available.

Snow Depth

Station Depth Elevation

Earthquake Activity

City Distance Mag. Time & Date
Minimum magnitude displayed is 2.5.

Coastal Water Temperatures

Place Temperature

Stations

Nearby Weather Stations

Station Location Temp. Windchill Dew Point Humidity Wind Precip. Elev Updated Type
                   

Watches & Warnings

There are currently no watches in effect.